Log in Register

Login to your account

Username *
Password *
Remember Me

Create an account

Fields marked with an asterisk (*) are required.
Name *
Username *
Password *
Verify password *
Email *
Verify email *

METAR/TAF de Chambéry

[source: ADDS]
METAR
LFLB 190530Z AUTO 02010KT 9999 BKN031 BKN210 03/M01 Q1028 TEMPO 02015G25KT =
TAF LFLB 190500Z 1906/2006 02010KT 9999 FEW035 BKN200 TEMPO 1906/1915 02015G25KT BKN030
TAF
TAF LFLB 190500Z 1906/2006 02010KT 9999 FEW035 BKN200 TEMPO 1906/1915 02015G25KT BKN030 =
SR / SS: 07:10 / 16:23 UTC (Lever/Coucher du soleil le 2020-01-19)

 

Webcam de l'Aéroclub - Parking Lima et SW (réactualisation : 5min)

Cliquer ici pour une animation sur les 3 dernières heures / Cliquer sur l'image pour l'agrandir dans une nouvelle fenêtre

 

Webcam de l'Aéroclub - Manche à air et WA (réactualisation : 5min)

Cliquer ici pour une animation sur les 3 dernières heures / Cliquer sur l'image pour l'agrandir dans une nouvelle fenêtre

 

JSN Boot template designed by JoomlaShine.com